createdAt,value
2018-03-14T00:01:08.614Z,13.83
2018-03-14T00:03:37.731Z,14.00
2018-03-14T00:06:06.774Z,12.97
2018-03-14T00:08:37.511Z,14.17
2018-03-14T00:11:07.544Z,15.90
2018-03-14T00:13:38.080Z,16.43
2018-03-14T00:16:07.165Z,18.33
2018-03-14T00:18:35.528Z,19.83
2018-03-14T00:21:04.315Z,18.13
2018-03-14T00:23:32.687Z,17.63
2018-03-14T00:26:02.520Z,16.53
2018-03-14T00:28:32.099Z,16.63
2018-03-14T00:31:01.651Z,18.60
2018-03-14T00:33:30.815Z,18.53
2018-03-14T00:35:59.941Z,18.90
2018-03-14T00:38:28.439Z,17.83
2018-03-14T00:40:57.525Z,17.37
2018-03-14T00:43:27.128Z,15.83
2018-03-14T00:45:55.789Z,15.50
2018-03-14T00:48:26.303Z,15.90
2018-03-14T00:50:55.582Z,14.30
2018-03-14T00:53:24.261Z,15.13
2018-03-14T00:55:53.125Z,15.93
2018-03-14T00:58:22.898Z,14.63
2018-03-14T01:00:53.964Z,17.40
2018-03-14T01:03:22.425Z,14.83
2018-03-14T01:05:52.353Z,15.77
2018-03-14T01:08:21.772Z,14.67
2018-03-14T01:10:51.925Z,15.57
2018-03-14T01:13:20.864Z,15.83
2018-03-14T01:15:51.390Z,15.93
2018-03-14T01:18:20.690Z,14.83
2018-03-14T01:20:50.082Z,14.43
2018-03-14T01:23:20.178Z,14.70
2018-03-14T01:25:49.339Z,14.57
2018-03-14T01:28:20.022Z,13.53
2018-03-14T01:30:48.370Z,14.50
2018-03-14T01:33:16.796Z,12.07
2018-03-14T01:35:45.915Z,14.97
2018-03-14T01:38:15.921Z,16.03
2018-03-14T01:40:45.136Z,15.40
2018-03-14T01:43:14.983Z,15.47
2018-03-14T01:45:44.589Z,15.70
2018-03-14T01:48:14.356Z,15.00
2018-03-14T01:50:42.699Z,13.33
2018-03-14T01:53:22.847Z,15.00
2018-03-14T01:55:52.093Z,14.73
2018-03-14T01:58:20.872Z,15.37
2018-03-14T02:00:50.623Z,14.63
2018-03-14T02:03:19.390Z,13.73
2018-03-14T02:05:47.916Z,14.37
2018-03-14T02:08:18.284Z,12.87
2018-03-14T02:10:46.683Z,13.10
2018-03-14T02:13:17.787Z,12.80
2018-03-14T02:15:47.057Z,15.13
2018-03-14T02:18:16.345Z,16.03
2018-03-14T02:20:44.792Z,14.03
2018-03-14T02:23:15.866Z,17.40
2018-03-14T02:25:45.713Z,14.67
2018-03-14T02:28:14.924Z,12.93
2018-03-14T02:30:44.916Z,15.60
2018-03-14T02:33:13.903Z,13.43
2018-03-14T02:35:43.365Z,13.63
2018-03-14T02:38:13.697Z,14.07
2018-03-14T02:40:42.637Z,15.60
2018-03-14T02:43:11.644Z,14.43
2018-03-14T02:45:40.844Z,14.90
2018-03-14T02:48:09.996Z,15.67
2018-03-14T02:50:39.507Z,16.67
2018-03-14T02:53:09.162Z,13.60
2018-03-14T02:55:38.375Z,14.30
2018-03-14T02:58:09.687Z,17.33
2018-03-14T03:00:38.393Z,17.13
2018-03-14T03:03:08.025Z,16.00
2018-03-14T03:05:36.795Z,15.17
2018-03-14T03:08:05.143Z,14.57
2018-03-14T03:10:33.483Z,18.17
2018-03-14T03:13:01.905Z,15.13
2018-03-14T03:15:30.469Z,16.97
2018-03-14T03:18:01.297Z,16.93
2018-03-14T03:20:30.533Z,18.73
2018-03-14T03:22:59.975Z,14.50
2018-03-14T03:25:28.694Z,22.20
2018-03-14T03:27:57.343Z,16.70
2018-03-14T03:30:26.529Z,19.37
2018-03-14T03:32:54.877Z,19.37
2018-03-14T03:35:23.308Z,21.17
2018-03-14T03:37:52.157Z,18.67
2018-03-14T03:40:22.437Z,23.63
2018-03-14T03:42:51.519Z,21.93
2018-03-14T03:45:19.891Z,22.53
2018-03-14T03:47:49.435Z,23.97
2018-03-14T03:50:17.827Z,25.63
2018-03-14T03:52:47.396Z,24.97
2018-03-14T03:55:16.780Z,25.23
2018-03-14T03:57:46.829Z,28.87
2018-03-14T04:00:17.511Z,28.97
2018-03-14T04:02:47.082Z,30.13
2018-03-14T04:05:16.794Z,26.67
2018-03-14T04:07:45.170Z,27.03
2018-03-14T04:10:14.132Z,27.50
2018-03-14T04:12:43.854Z,27.97
2018-03-14T04:15:12.238Z,27.53
2018-03-14T04:17:41.606Z,31.83
2018-03-14T04:20:10.924Z,28.67
2018-03-14T04:22:39.294Z,30.37
2018-03-14T04:25:10.065Z,29.80
2018-03-14T04:27:39.099Z,28.67
2018-03-14T04:30:08.791Z,29.37
2018-03-14T04:32:38.848Z,29.13
2018-03-14T04:35:09.402Z,29.90
2018-03-14T04:37:37.780Z,28.37
2018-03-14T04:40:07.340Z,30.87
2018-03-14T04:42:35.676Z,30.43
2018-03-14T04:45:04.759Z,29.93
2018-03-14T04:47:33.251Z,30.90
2018-03-14T04:50:02.575Z,29.37
2018-03-14T04:52:32.381Z,29.20
2018-03-14T04:55:02.209Z,32.23
2018-03-14T04:57:30.605Z,33.60
2018-03-14T04:59:59.044Z,29.03
2018-03-14T05:02:29.292Z,30.40
2018-03-14T05:04:58.464Z,34.60
2018-03-14T05:07:28.585Z,33.93
2018-03-14T05:09:57.924Z,29.17
2018-03-14T05:12:28.867Z,30.73
2018-03-14T05:14:57.205Z,27.03
2018-03-14T05:17:25.556Z,26.73
2018-03-14T05:19:54.137Z,26.93
2018-03-14T05:22:24.415Z,31.43
2018-03-14T05:24:52.749Z,28.70
2018-03-14T05:27:21.889Z,26.97
2018-03-14T05:29:52.182Z,26.70
2018-03-14T05:32:21.898Z,27.57
2018-03-14T05:34:52.422Z,26.07
2018-03-14T05:37:22.611Z,25.10
2018-03-14T05:39:52.658Z,25.07
2018-03-14T05:42:22.531Z,23.70
2018-03-14T05:44:51.708Z,25.93
2018-03-14T05:47:23.377Z,22.83
2018-03-14T05:49:51.740Z,25.80
2018-03-14T05:52:20.123Z,24.23
2018-03-14T05:54:49.379Z,23.43
2018-03-14T05:57:19.363Z,26.27
2018-03-14T05:59:49.495Z,23.10
2018-03-14T06:02:17.930Z,24.57
2018-03-14T06:04:46.887Z,23.07
2018-03-14T06:07:16.207Z,24.70
2018-03-14T06:09:45.080Z,23.23
2018-03-14T06:12:13.789Z,23.50
2018-03-14T06:14:42.158Z,24.33
2018-03-14T06:17:10.548Z,24.50
2018-03-14T06:19:41.147Z,28.03
2018-03-14T06:22:10.095Z,26.53
2018-03-14T06:24:40.079Z,23.30
2018-03-14T06:27:08.450Z,22.60
2018-03-14T06:29:38.586Z,22.10
2018-03-14T06:32:07.050Z,19.93
2018-03-14T06:34:35.451Z,21.00
2018-03-14T06:37:05.741Z,25.53
2018-03-14T06:39:34.937Z,24.70
2018-03-14T06:42:04.201Z,27.17
2018-03-14T06:44:34.313Z,24.87
2018-03-14T06:47:02.691Z,24.93
2018-03-14T06:49:32.530Z,27.27
2018-03-14T06:52:01.860Z,25.77
2018-03-14T06:54:31.077Z,20.90
2018-03-14T06:57:02.504Z,20.00
2018-03-14T07:03:04.124Z,20.77
2018-03-14T07:05:46.179Z,20.47
2018-03-14T07:08:15.457Z,22.90
2018-03-14T07:10:44.098Z,22.03
2018-03-14T07:13:14.119Z,20.60
2018-03-14T07:15:43.527Z,24.67
2018-03-14T07:18:12.652Z,21.90
2018-03-14T07:20:41.830Z,20.50
2018-03-14T07:23:11.120Z,19.97
2018-03-14T07:25:40.070Z,21.47
2018-03-14T07:28:08.488Z,20.20
2018-03-14T07:30:38.112Z,19.23
2018-03-14T07:33:08.297Z,20.93
2018-03-14T07:35:36.919Z,20.97
2018-03-14T07:38:06.787Z,23.63
2018-03-14T07:40:35.364Z,19.43
2018-03-14T07:43:04.939Z,22.10
2018-03-14T07:45:34.935Z,22.03
2018-03-14T07:48:03.884Z,20.70
2018-03-14T07:50:33.162Z,24.57
2018-03-14T07:53:02.344Z,22.00
2018-03-14T07:55:31.004Z,18.57
2018-03-14T07:57:59.403Z,21.27
2018-03-14T08:00:28.940Z,20.87
2018-03-14T08:02:57.292Z,19.77
2018-03-14T08:05:26.930Z,18.97
2018-03-14T08:07:56.399Z,18.80
2018-03-14T08:10:25.665Z,19.60
2018-03-14T08:12:57.213Z,20.83
2018-03-14T08:15:26.386Z,17.43
2018-03-14T08:17:55.585Z,17.90
2018-03-14T08:20:24.694Z,20.60
2018-03-14T08:22:57.855Z,20.87
2018-03-14T08:25:26.719Z,21.27
2018-03-14T08:27:56.513Z,20.13
2018-03-14T08:30:25.027Z,18.13
2018-03-14T08:32:55.850Z,20.10
2018-03-14T08:35:24.199Z,19.40
2018-03-14T08:37:53.233Z,22.03
2018-03-14T08:40:23.252Z,22.90
2018-03-14T08:42:53.471Z,20.13
2018-03-14T08:45:23.692Z,19.97
2018-03-14T08:47:52.023Z,19.40
2018-03-14T08:50:22.175Z,20.33
2018-03-14T08:52:51.501Z,19.30
2018-03-14T08:55:20.719Z,20.20
2018-03-14T08:57:50.348Z,19.17
2018-03-14T09:00:19.517Z,19.47
2018-03-14T09:02:47.858Z,21.37
2018-03-14T09:05:17.070Z,25.20
2018-03-14T09:07:48.571Z,20.60
2018-03-14T09:10:17.546Z,34.70
2018-03-14T09:12:45.947Z,23.60
2018-03-14T09:15:14.683Z,27.07
2018-03-14T09:17:43.024Z,25.00
2018-03-14T09:20:11.771Z,23.20
2018-03-14T09:22:41.357Z,28.27
2018-03-14T09:25:09.754Z,25.10
2018-03-14T09:27:39.596Z,22.27
2018-03-14T09:30:08.466Z,25.97
2018-03-14T09:32:39.457Z,30.97
2018-03-14T09:35:08.080Z,25.80
2018-03-14T09:37:39.406Z,24.03
2018-03-14T09:40:10.534Z,25.43
2018-03-14T09:42:39.222Z,28.97
2018-03-14T09:45:07.892Z,29.93
2018-03-14T09:47:36.943Z,27.63
2018-03-14T09:50:06.776Z,37.57
2018-03-14T09:52:36.899Z,36.60
2018-03-14T09:55:05.533Z,25.73
2018-03-14T09:57:35.524Z,27.23
2018-03-14T10:00:05.834Z,28.77
2018-03-14T10:02:34.239Z,28.03
2018-03-14T10:05:03.499Z,23.37
2018-03-14T10:07:33.883Z,25.67
2018-03-14T10:10:03.724Z,25.40
2018-03-14T10:12:32.119Z,24.17
2018-03-14T10:15:00.841Z,26.33
2018-03-14T10:17:29.884Z,24.80
2018-03-14T10:19:59.615Z,27.73
2018-03-14T10:22:28.313Z,25.03
2018-03-14T10:24:59.003Z,25.50
2018-03-14T10:27:28.187Z,24.63
2018-03-14T10:29:56.614Z,23.90
2018-03-14T10:32:26.629Z,26.10
2018-03-14T10:34:55.761Z,25.77
2018-03-14T10:37:24.440Z,23.80
2018-03-14T10:39:54.647Z,24.23
2018-03-14T10:42:24.729Z,25.97
2018-03-14T10:44:53.473Z,24.90
2018-03-14T10:47:21.866Z,31.87
2018-03-14T10:49:51.985Z,29.67
2018-03-14T10:52:22.812Z,27.63
2018-03-14T10:54:52.126Z,24.03
2018-03-14T10:57:21.468Z,30.43
2018-03-14T10:59:51.557Z,26.67
2018-03-14T11:02:22.997Z,25.00
2018-03-14T11:04:53.118Z,28.37
2018-03-14T11:07:22.208Z,27.37
2018-03-14T11:09:51.291Z,27.90
2018-03-14T11:12:20.350Z,23.23
2018-03-14T11:14:50.611Z,25.20
2018-03-14T11:17:19.849Z,25.33
2018-03-14T11:19:48.936Z,22.67
2018-03-14T11:22:17.841Z,23.10
2018-03-14T11:24:47.624Z,26.30
2018-03-14T11:27:16.791Z,21.27
2018-03-14T11:29:46.494Z,22.60
2018-03-14T11:32:14.913Z,20.80
2018-03-14T11:34:44.435Z,22.07
2018-03-14T11:37:13.146Z,23.93
2018-03-14T11:39:43.061Z,21.43
2018-03-14T11:42:11.511Z,22.43
2018-03-14T11:44:41.106Z,20.40
2018-03-14T11:47:18.365Z,22.57
2018-03-14T11:49:47.671Z,19.47
2018-03-14T11:52:16.332Z,19.47
2018-03-14T11:54:45.866Z,20.90
2018-03-14T11:57:16.791Z,19.13
2018-03-14T11:59:45.629Z,19.87
2018-03-14T12:02:13.976Z,21.50
2018-03-14T12:04:44.439Z,23.00
2018-03-14T12:07:13.190Z,21.03
2018-03-14T12:09:43.001Z,18.90
2018-03-14T12:12:11.616Z,20.53
2018-03-14T12:14:41.571Z,21.37
2018-03-14T12:17:10.571Z,19.00
2018-03-14T12:19:39.040Z,21.13
2018-03-14T12:22:13.347Z,22.87
2018-03-14T12:24:42.660Z,19.77
2018-03-14T12:27:11.994Z,21.73
2018-03-14T12:29:41.296Z,19.03
2018-03-14T12:32:11.027Z,19.20
2018-03-14T12:34:43.038Z,20.70
2018-03-14T12:37:12.239Z,18.90
2018-03-14T12:39:41.864Z,20.17
2018-03-14T12:42:11.221Z,19.93
2018-03-14T12:44:41.159Z,21.43
2018-03-14T12:47:10.006Z,19.47
2018-03-14T12:49:38.557Z,20.80
2018-03-14T12:52:07.247Z,20.70
2018-03-14T12:54:36.303Z,19.20
2018-03-14T12:57:04.662Z,18.33
2018-03-14T12:59:33.217Z,18.70
2018-03-14T13:02:02.442Z,17.53
2018-03-14T13:04:30.986Z,19.90
2018-03-14T13:07:01.087Z,20.10
2018-03-14T13:09:29.462Z,17.37
2018-03-14T13:11:57.892Z,20.50
2018-03-14T13:14:26.224Z,20.23
2018-03-14T13:16:56.035Z,17.63
2018-03-14T13:19:24.956Z,20.60
2018-03-14T13:21:53.318Z,18.67
2018-03-14T13:24:23.570Z,23.10
2018-03-14T13:26:53.117Z,16.33
2018-03-14T13:29:22.743Z,18.67
2018-03-14T13:31:51.305Z,18.60
2018-03-14T13:34:19.725Z,19.00
2018-03-14T13:36:48.151Z,16.87
2018-03-14T13:39:16.630Z,16.90
2018-03-14T13:41:45.760Z,17.20
2018-03-14T13:44:14.961Z,17.50
2018-03-14T13:46:43.342Z,17.70
2018-03-14T13:49:12.594Z,14.87
2018-03-14T13:51:41.016Z,15.63
2018-03-14T13:54:10.144Z,13.13
2018-03-14T13:56:39.522Z,12.83
2018-03-14T13:59:08.166Z,13.97
2018-03-14T14:01:38.119Z,15.27
2018-03-14T14:04:07.307Z,10.10
2018-03-14T14:06:36.435Z,12.73
2018-03-14T14:09:05.775Z,13.33
2018-03-14T14:11:34.994Z,12.87
2018-03-14T14:14:03.459Z,17.57
2018-03-14T14:16:32.779Z,12.73
2018-03-14T14:19:02.803Z,14.43
2018-03-14T14:21:32.721Z,14.00
2018-03-14T14:24:01.161Z,11.83
2018-03-14T14:26:30.172Z,12.50
2018-03-14T14:29:00.363Z,12.40
2018-03-14T14:31:28.713Z,12.73
2018-03-14T14:33:57.065Z,12.20
2018-03-14T14:36:28.430Z,15.07
2018-03-14T14:38:56.836Z,10.80
2018-03-14T14:41:25.255Z,12.20
2018-03-14T14:43:54.525Z,15.17
2018-03-14T14:46:24.311Z,16.57
2018-03-14T14:48:55.114Z,16.10
2018-03-14T14:51:23.795Z,13.37
2018-03-14T14:53:53.977Z,14.07
2018-03-14T14:56:22.396Z,14.80
2018-03-14T14:58:52.740Z,15.20
2018-03-14T15:01:21.176Z,13.20
2018-03-14T15:03:51.110Z,13.17
2018-03-14T15:06:20.238Z,13.03
2018-03-14T15:08:49.131Z,13.73
2018-03-14T15:11:18.403Z,14.67
2018-03-14T15:13:49.541Z,12.33
2018-03-14T15:16:19.266Z,15.13
2018-03-14T15:18:48.284Z,16.87
2018-03-14T15:21:18.530Z,14.43
2018-03-14T15:23:47.623Z,16.03
2018-03-14T15:26:16.026Z,17.87
2018-03-14T15:28:45.163Z,17.17
2018-03-14T15:31:13.622Z,17.80
2018-03-14T15:33:42.370Z,17.90
2018-03-14T15:36:10.714Z,14.77
2018-03-14T15:38:42.188Z,15.37
2018-03-14T15:41:13.384Z,15.43
2018-03-14T15:43:42.106Z,18.07
2018-03-14T15:46:10.528Z,19.10
2018-03-14T15:48:43.194Z,17.77
2018-03-14T15:51:14.109Z,14.10
2018-03-14T15:53:44.175Z,17.60
2018-03-14T15:56:13.045Z,15.50
2018-03-14T15:58:44.660Z,15.47
2018-03-14T16:01:13.275Z,16.63
2018-03-14T16:03:45.368Z,16.47
2018-03-14T16:06:15.055Z,18.40
2018-03-14T16:08:43.419Z,15.27
2018-03-14T16:11:12.901Z,17.30
2018-03-14T16:13:41.262Z,18.00
2018-03-14T16:16:11.988Z,15.47
2018-03-14T16:18:40.923Z,13.27
2018-03-14T16:21:11.624Z,14.83
2018-03-14T16:23:40.487Z,14.47
2018-03-14T16:26:09.690Z,12.13
2018-03-14T16:28:39.609Z,13.27
2018-03-14T16:31:08.793Z,14.63
2018-03-14T16:33:38.297Z,14.80
2018-03-14T16:36:07.589Z,14.37
2018-03-14T16:38:36.063Z,14.30
2018-03-14T16:41:05.830Z,16.67
2018-03-14T16:43:35.682Z,15.23
2018-03-14T16:46:04.034Z,15.03
2018-03-14T16:48:33.242Z,74.10
2018-03-14T16:51:03.248Z,15.80
2018-03-14T16:53:31.659Z,16.87
2018-03-14T16:56:00.676Z,15.93
2018-03-14T16:58:30.746Z,16.40
2018-03-14T17:00:59.135Z,15.13
2018-03-14T17:03:28.997Z,15.23
2018-03-14T17:05:57.868Z,15.17
2018-03-14T17:08:29.650Z,19.70
2018-03-14T17:11:00.219Z,17.20
2018-03-14T17:13:29.325Z,19.47
2018-03-14T17:15:58.559Z,22.13
2018-03-14T17:18:27.188Z,29.63
2018-03-14T17:20:56.262Z,28.10
2018-03-14T17:23:24.666Z,21.93
2018-03-14T17:25:53.172Z,20.53
2018-03-14T17:28:21.596Z,19.07
2018-03-14T17:30:51.750Z,19.37
2018-03-14T17:33:20.987Z,21.53
2018-03-14T17:35:50.408Z,29.13
2018-03-14T17:38:20.250Z,30.17
2018-03-14T17:40:50.221Z,39.23
2018-03-14T17:43:19.467Z,29.40
2018-03-14T17:45:47.873Z,28.33
2018-03-14T17:48:18.836Z,25.07
2018-03-14T17:50:49.163Z,26.07
2018-03-14T17:53:17.614Z,26.43
2018-03-14T17:55:46.399Z,22.13
2018-03-14T17:58:16.746Z,21.03
2018-03-14T18:00:46.079Z,18.23
2018-03-14T18:03:16.976Z,17.13
2018-03-14T18:05:46.164Z,15.20
2018-03-14T18:08:15.096Z,15.90
2018-03-14T18:10:44.559Z,20.83
2018-03-14T18:13:14.095Z,21.63
2018-03-14T18:15:44.407Z,19.50
2018-03-14T18:18:14.244Z,20.70
2018-03-14T18:20:43.785Z,28.97
2018-03-14T18:23:12.210Z,30.57
2018-03-14T18:25:41.316Z,25.50
2018-03-14T18:28:10.344Z,18.67
2018-03-14T18:30:38.688Z,20.73
2018-03-14T18:33:07.686Z,22.70
2018-03-14T18:35:36.951Z,24.50
2018-03-14T18:38:08.879Z,19.87
2018-03-14T18:40:39.649Z,23.37
2018-03-14T18:43:11.255Z,25.17
2018-03-14T18:45:40.255Z,30.17
2018-03-14T18:48:09.356Z,29.97
2018-03-14T18:50:39.956Z,25.23
2018-03-14T18:53:11.144Z,22.97
2018-03-14T18:55:42.135Z,19.60
2018-03-14T18:58:11.064Z,23.77
2018-03-14T19:00:40.127Z,19.50
2018-03-14T19:03:10.425Z,20.93
2018-03-14T19:05:42.433Z,22.60
2018-03-14T19:08:11.680Z,24.23
2018-03-14T19:10:41.304Z,21.00
2018-03-14T19:13:11.352Z,18.30
2018-03-14T19:15:41.300Z,18.87
2018-03-14T19:18:09.651Z,22.13
2018-03-14T19:20:38.086Z,21.30
2018-03-14T19:23:07.031Z,22.47
2018-03-14T19:25:35.600Z,24.57
2018-03-14T19:28:05.362Z,21.77
2018-03-14T19:30:33.743Z,21.50
2018-03-14T19:33:02.891Z,21.93
2018-03-14T19:35:31.446Z,24.70
2018-03-14T19:38:00.664Z,21.90
2018-03-14T19:40:29.611Z,26.33
2018-03-14T19:42:58.981Z,26.17
2018-03-14T19:45:27.366Z,27.77
2018-03-14T19:47:57.389Z,25.70
2018-03-14T19:50:27.067Z,28.50
2018-03-14T19:52:55.797Z,25.87
2018-03-14T19:55:24.794Z,22.97
2018-03-14T19:57:53.501Z,22.87
2018-03-14T20:00:23.004Z,22.07
2018-03-14T20:02:54.920Z,20.03
2018-03-14T20:05:24.278Z,22.40
2018-03-14T20:07:52.620Z,24.73
2018-03-14T20:10:20.986Z,23.10
2018-03-14T20:12:51.293Z,22.43
2018-03-14T20:15:20.363Z,23.97
2018-03-14T20:17:48.733Z,24.90
2018-03-14T20:20:17.560Z,21.37
2018-03-14T20:22:46.769Z,23.17
2018-03-14T20:25:15.141Z,19.53
2018-03-14T20:27:44.234Z,23.53
2018-03-14T20:30:13.453Z,23.77
2018-03-14T20:32:41.873Z,23.23
2018-03-14T20:35:11.351Z,25.07
2018-03-14T20:37:40.493Z,23.70
2018-03-14T20:40:08.898Z,25.20
2018-03-14T20:42:37.294Z,28.07
2018-03-14T20:45:06.037Z,27.67
2018-03-14T20:47:36.110Z,22.57
2018-03-14T20:50:04.574Z,22.90
2018-03-14T20:52:33.587Z,25.73
2018-03-14T20:55:03.700Z,23.40
2018-03-14T20:57:32.200Z,25.13
2018-03-14T21:00:00.574Z,22.90
2018-03-14T21:02:31.033Z,24.53
2018-03-14T21:04:59.378Z,24.43
2018-03-14T21:07:27.766Z,30.73
2018-03-14T21:09:56.275Z,40.63
2018-03-14T21:12:25.787Z,45.40
2018-03-14T21:14:55.421Z,47.87
2018-03-14T21:17:23.760Z,40.30
2018-03-14T21:19:54.037Z,34.90
2018-03-14T21:22:22.435Z,29.00
2018-03-14T21:24:51.616Z,26.13
2018-03-14T21:27:20.796Z,31.37
2018-03-14T21:29:50.008Z,32.93
2018-03-14T21:32:18.798Z,30.47
2018-03-14T21:34:47.150Z,29.47
2018-03-14T21:37:16.795Z,25.27
2018-03-14T21:39:46.597Z,23.50
2018-03-14T21:42:15.878Z,28.27
2018-03-14T21:44:45.117Z,70.03
2018-03-14T21:47:16.522Z,38.87
2018-03-14T21:49:45.954Z,37.40
2018-03-14T21:52:14.308Z,33.87
2018-03-14T21:54:42.915Z,29.20
2018-03-14T21:57:19.554Z,27.13
2018-03-14T21:59:50.694Z,27.97
2018-03-14T22:02:19.093Z,27.77
2018-03-14T22:04:48.067Z,27.03
2018-03-14T22:07:16.471Z,26.30
2018-03-14T22:09:46.315Z,26.10
2018-03-14T22:12:21.838Z,22.00
2018-03-14T22:14:51.807Z,26.23
2018-03-14T22:17:22.363Z,23.80
2018-03-14T22:19:50.723Z,24.40
2018-03-14T22:22:20.473Z,24.70
2018-03-14T22:24:49.174Z,23.47
2018-03-14T22:27:18.817Z,23.70
2018-03-14T22:29:47.839Z,22.90
2018-03-14T22:32:16.394Z,21.27
2018-03-14T22:34:44.777Z,24.53
2018-03-14T22:37:14.048Z,23.70
2018-03-14T22:39:43.186Z,22.37
2018-03-14T22:42:11.988Z,24.27
2018-03-14T22:44:41.291Z,23.47
2018-03-14T22:47:10.478Z,24.33
2018-03-14T22:49:40.092Z,23.97
2018-03-14T22:52:08.460Z,24.70
2018-03-14T22:54:36.786Z,22.40
2018-03-14T22:57:05.378Z,23.90
2018-03-14T22:59:33.774Z,22.80
2018-03-14T23:02:02.201Z,24.27
2018-03-14T23:04:31.237Z,25.57
2018-03-14T23:07:00.063Z,23.67
2018-03-14T23:09:29.270Z,26.37
2018-03-14T23:11:57.670Z,22.80
2018-03-14T23:14:27.995Z,20.83
2018-03-14T23:16:56.307Z,21.60
2018-03-14T23:19:26.051Z,24.43
2018-03-14T23:21:56.299Z,26.33
2018-03-14T23:24:24.654Z,23.90
2018-03-14T23:26:53.027Z,22.33
2018-03-14T23:29:22.613Z,22.87
2018-03-14T23:31:54.106Z,22.53
2018-03-14T23:34:22.678Z,22.47
2018-03-14T23:36:51.055Z,21.80
2018-03-14T23:39:19.419Z,20.80
2018-03-14T23:41:47.797Z,23.03
2018-03-14T23:44:16.287Z,24.97
2018-03-14T23:46:44.617Z,24.30
2018-03-14T23:49:13.721Z,25.37
2018-03-14T23:51:42.341Z,24.23
2018-03-14T23:54:11.576Z,23.20
2018-03-14T23:56:40.381Z,22.33
2018-03-14T23:59:10.047Z,22.93
